createdAt,value
2023-01-21T00:00:12.388Z,10.00
2023-01-21T00:02:42.322Z,11.03
2023-01-21T00:08:05.705Z,11.20
2023-01-21T00:10:33.279Z,11.20
2023-01-21T00:13:00.748Z,12.80
2023-01-21T00:15:28.128Z,10.97
2023-01-21T00:17:55.566Z,10.90
2023-01-21T00:20:23.675Z,10.93
2023-01-21T00:22:53.385Z,10.33
2023-01-21T00:33:09.479Z,12.77
2023-01-21T00:35:36.919Z,11.37
2023-01-21T00:38:04.837Z,10.33
2023-01-21T00:40:32.107Z,12.27
2023-01-21T00:42:59.409Z,11.67
2023-01-21T00:45:27.297Z,11.53
2023-01-21T00:47:54.982Z,10.60
2023-01-21T00:50:31.323Z,11.40
2023-01-21T00:55:42.895Z,11.83
2023-01-21T00:58:10.511Z,10.50
2023-01-21T01:00:37.941Z,10.97
2023-01-21T01:03:06.252Z,10.23
2023-01-21T01:05:33.675Z,11.47
2023-01-21T01:08:01.196Z,12.17
2023-01-21T01:10:29.025Z,11.00
2023-01-21T01:20:55.252Z,8.93
2023-01-21T01:23:23.239Z,10.80
2023-01-21T01:25:58.537Z,9.87
2023-01-21T01:28:25.887Z,10.20
2023-01-21T01:30:53.392Z,10.63
2023-01-21T01:33:21.012Z,9.27
2023-01-21T01:35:48.624Z,9.90
2023-01-21T01:41:06.402Z,10.17
2023-01-21T01:43:56.783Z,10.13
2023-01-21T01:46:25.710Z,9.80
2023-01-21T01:48:59.247Z,9.13
2023-01-21T01:51:33.992Z,10.03
2023-01-21T01:54:01.857Z,9.60
2023-01-21T01:56:30.880Z,10.47
2023-01-21T01:58:58.435Z,10.80
2023-01-21T02:04:38.578Z,11.33
2023-01-21T02:07:05.940Z,9.57
2023-01-21T02:09:33.157Z,9.23
2023-01-21T02:12:03.243Z,8.97
2023-01-21T02:14:32.341Z,9.17
2023-01-21T02:17:20.587Z,10.47
2023-01-21T02:20:18.233Z,11.50
2023-01-21T02:28:08.279Z,9.37
2023-01-21T02:31:05.547Z,10.57
2023-01-21T02:33:43.886Z,9.47
2023-01-21T02:36:32.160Z,10.30
2023-01-21T02:39:10.960Z,9.77
2023-01-21T02:41:53.001Z,10.43
2023-01-21T02:44:32.099Z,10.80
2023-01-21T02:54:54.111Z,11.30
2023-01-21T02:57:38.597Z,11.20
2023-01-21T03:00:10.866Z,10.23
2023-01-21T03:03:10.172Z,11.40
2023-01-21T03:06:05.530Z,11.93
2023-01-21T03:08:42.149Z,10.83
2023-01-21T03:11:15.150Z,9.17
2023-01-21T03:21:44.530Z,11.23
2023-01-21T03:24:16.147Z,10.93
2023-01-21T03:26:49.359Z,11.97
2023-01-21T03:29:19.810Z,11.43
2023-01-21T03:31:52.113Z,10.23
2023-01-21T03:34:24.487Z,10.93
2023-01-21T03:37:15.841Z,10.70
2023-01-21T03:39:48.987Z,11.13
2023-01-21T03:47:28.297Z,10.87
2023-01-21T03:49:59.630Z,9.90
2023-01-21T03:52:29.680Z,10.90
2023-01-21T03:54:57.058Z,12.23
2023-01-21T03:57:24.361Z,10.20
2023-01-21T03:59:51.975Z,11.33
2023-01-21T04:02:20.381Z,11.00
2023-01-21T04:04:49.711Z,12.20
2023-01-21T04:12:22.927Z,10.37
2023-01-21T04:14:50.880Z,9.87
2023-01-21T04:17:20.278Z,11.77
2023-01-21T04:19:47.888Z,11.30
2023-01-21T04:22:15.594Z,10.57
2023-01-21T04:24:43.303Z,10.47
2023-01-21T04:27:11.002Z,10.07
2023-01-21T04:29:39.841Z,11.67
2023-01-21T04:34:54.671Z,12.53
2023-01-21T04:37:24.985Z,10.73
2023-01-21T04:39:53.193Z,12.53
2023-01-21T04:42:20.761Z,13.43
2023-01-21T04:44:48.338Z,11.47
2023-01-21T04:47:16.114Z,11.93
2023-01-21T04:49:44.404Z,11.83
2023-01-21T04:52:13.134Z,12.80
2023-01-21T04:59:41.010Z,12.97
2023-01-21T05:02:08.831Z,13.23
2023-01-21T05:04:37.040Z,13.30
2023-01-21T05:07:05.732Z,12.93
2023-01-21T05:09:33.541Z,12.60
2023-01-21T05:12:01.608Z,13.97
2023-01-21T05:14:29.905Z,15.23
2023-01-21T05:16:59.239Z,13.47
2023-01-21T05:19:26.828Z,12.83
2023-01-21T05:27:02.804Z,12.30
2023-01-21T05:29:30.566Z,13.27
2023-01-21T05:31:58.288Z,11.67
2023-01-21T05:34:25.953Z,12.03
2023-01-21T05:36:53.407Z,13.33
2023-01-21T05:39:20.951Z,12.27
2023-01-21T05:41:49.072Z,11.37
2023-01-21T05:44:18.827Z,12.90
2023-01-21T05:51:52.548Z,14.30
2023-01-21T05:54:20.557Z,14.03
2023-01-21T05:56:48.636Z,15.07
2023-01-21T05:59:16.857Z,14.17
2023-01-21T06:01:44.540Z,14.27
2023-01-21T06:04:12.412Z,13.83
2023-01-21T06:06:40.433Z,12.23
2023-01-21T06:11:54.846Z,12.77
2023-01-21T06:14:23.028Z,13.03
2023-01-21T06:16:50.726Z,13.93
2023-01-21T06:19:18.774Z,13.33
2023-01-21T06:21:46.726Z,12.40
2023-01-21T06:24:14.333Z,13.77
2023-01-21T06:26:42.057Z,13.37
2023-01-21T06:29:11.244Z,13.07
2023-01-21T06:36:44.281Z,13.10
2023-01-21T06:39:12.894Z,11.97
2023-01-21T06:41:40.829Z,12.63
2023-01-21T06:44:08.894Z,12.97
2023-01-21T06:46:38.334Z,13.03
2023-01-21T06:49:08.494Z,11.30
2023-01-21T06:51:37.134Z,12.57
2023-01-21T06:54:06.578Z,12.47
2023-01-21T07:04:03.703Z,12.07
2023-01-21T07:06:31.406Z,11.37
2023-01-21T07:09:02.475Z,12.90
2023-01-21T07:11:30.532Z,12.77
2023-01-21T07:13:58.280Z,10.97
2023-01-21T07:16:26.649Z,12.67
2023-01-21T07:18:54.762Z,12.80
2023-01-21T07:24:03.415Z,11.93
2023-01-21T07:26:31.683Z,13.47
2023-01-21T07:29:01.725Z,13.00
2023-01-21T07:31:30.010Z,12.03
2023-01-21T07:33:58.604Z,13.57
2023-01-21T07:36:26.571Z,13.77
2023-01-21T07:38:54.908Z,11.77
2023-01-21T07:41:24.045Z,11.57
2023-01-21T07:48:53.648Z,11.77
2023-01-21T07:51:22.678Z,11.93
2023-01-21T07:53:50.473Z,12.30
2023-01-21T07:56:20.149Z,11.03
2023-01-21T07:58:48.505Z,11.27
2023-01-21T08:01:17.149Z,12.13
2023-01-21T08:03:45.364Z,11.23
2023-01-21T08:13:10.301Z,12.03
2023-01-21T08:15:38.525Z,13.50
2023-01-21T08:18:06.131Z,12.53
2023-01-21T08:20:34.591Z,10.23
2023-01-21T08:23:02.228Z,11.33
2023-01-21T08:25:30.211Z,11.40
2023-01-21T08:27:59.746Z,11.47
2023-01-21T08:33:33.367Z,10.83
2023-01-21T08:36:02.366Z,11.13
2023-01-21T08:38:29.995Z,11.80
2023-01-21T08:40:58.149Z,13.20
2023-01-21T08:43:27.126Z,11.83
2023-01-21T08:45:58.981Z,12.13
2023-01-21T08:48:26.787Z,11.93
2023-01-21T08:55:58.458Z,12.17
2023-01-21T08:58:26.186Z,12.90
2023-01-21T09:00:53.730Z,11.07
2023-01-21T09:03:21.540Z,13.20
2023-01-21T09:05:51.363Z,12.20
2023-01-21T09:08:19.509Z,13.33
2023-01-21T09:11:06.557Z,13.10
2023-01-21T09:13:38.604Z,12.83
2023-01-21T09:21:09.892Z,11.70
2023-01-21T09:23:38.772Z,11.50
2023-01-21T09:26:08.749Z,12.57
2023-01-21T09:28:41.921Z,11.80
2023-01-21T09:31:12.823Z,12.23
2023-01-21T09:33:42.757Z,11.00
2023-01-21T09:36:14.965Z,11.77
2023-01-21T09:43:54.304Z,11.40
2023-01-21T09:46:30.266Z,11.13
2023-01-21T09:48:59.248Z,10.57
2023-01-21T09:51:36.780Z,13.00
2023-01-21T09:54:06.960Z,10.77
2023-01-21T09:56:42.098Z,10.90
2023-01-21T09:59:21.826Z,11.70
2023-01-21T10:09:59.584Z,11.47
2023-01-21T10:12:51.980Z,11.57
2023-01-21T10:15:41.611Z,10.70
2023-01-21T10:18:13.422Z,11.47
2023-01-21T10:20:48.407Z,12.57
2023-01-21T10:23:23.005Z,11.60
2023-01-21T10:25:54.498Z,11.37
2023-01-21T10:33:32.712Z,12.37
2023-01-21T10:36:19.303Z,10.70
2023-01-21T10:38:55.580Z,11.87
2023-01-21T10:41:40.739Z,11.50
2023-01-21T10:44:17.776Z,10.90
2023-01-21T10:46:53.193Z,12.53
2023-01-21T10:49:35.920Z,12.07
2023-01-21T10:57:25.475Z,12.67
2023-01-21T10:59:55.090Z,12.67
2023-01-21T11:02:29.288Z,13.17
2023-01-21T11:04:59.167Z,13.40
2023-01-21T11:07:27.979Z,12.37
2023-01-21T11:09:56.211Z,12.27
2023-01-21T11:12:24.889Z,12.37
2023-01-21T11:14:58.274Z,12.60
2023-01-21T11:22:05.018Z,12.97
2023-01-21T11:24:44.440Z,10.87
2023-01-21T11:27:22.695Z,10.73
2023-01-21T11:29:52.199Z,13.30
2023-01-21T11:32:25.539Z,11.23
2023-01-21T11:35:02.395Z,12.37
2023-01-21T11:37:33.625Z,10.40
2023-01-21T11:45:29.203Z,8.53
2023-01-21T11:47:59.388Z,9.87
2023-01-21T11:50:29.563Z,8.90
2023-01-21T11:53:12.805Z,10.23
2023-01-21T11:55:44.064Z,9.17
2023-01-21T11:58:20.291Z,8.67
2023-01-21T12:00:52.667Z,9.80
2023-01-21T12:03:27.589Z,9.43
2023-01-21T12:08:54.671Z,9.27
2023-01-21T12:11:25.305Z,7.23
2023-01-21T12:14:00.167Z,8.93
2023-01-21T12:16:35.674Z,8.80
2023-01-21T12:19:25.711Z,10.27
2023-01-21T12:22:20.235Z,8.83
2023-01-21T12:25:03.959Z,8.73
2023-01-21T12:30:40.399Z,10.93
2023-01-21T12:33:16.484Z,7.67
2023-01-21T12:35:48.537Z,9.90
2023-01-21T12:38:21.657Z,8.07
2023-01-21T12:40:57.379Z,7.00
2023-01-21T12:43:33.351Z,7.63
2023-01-21T12:46:12.490Z,7.83
2023-01-21T12:56:34.749Z,7.20
2023-01-21T12:59:13.690Z,7.03
2023-01-21T13:01:49.673Z,6.10
2023-01-21T13:04:41.616Z,6.57
2023-01-21T13:07:22.227Z,6.20
2023-01-21T13:09:57.421Z,5.43
2023-01-21T13:12:33.418Z,4.77
2023-01-21T13:18:14.036Z,5.10
2023-01-21T13:20:51.553Z,5.23
2023-01-21T13:23:30.298Z,4.97
2023-01-21T13:26:03.234Z,4.30
2023-01-21T13:28:39.836Z,5.27
2023-01-21T13:31:14.790Z,5.23
2023-01-21T13:33:56.099Z,5.30
2023-01-21T13:42:16.396Z,6.23
2023-01-21T13:45:24.024Z,6.47
2023-01-21T13:48:16.866Z,6.47
2023-01-21T13:51:04.312Z,5.87
2023-01-21T13:53:54.463Z,5.83
2023-01-21T13:56:35.583Z,6.53
2023-01-21T13:59:13.776Z,6.57
2023-01-21T14:06:54.308Z,6.17
2023-01-21T14:09:26.367Z,6.33
2023-01-21T14:12:02.837Z,5.13
2023-01-21T14:15:00.136Z,5.40
2023-01-21T14:17:47.252Z,5.23
2023-01-21T14:20:47.641Z,5.37
2023-01-21T14:23:39.823Z,5.80
2023-01-21T14:31:17.887Z,5.23
2023-01-21T14:34:06.349Z,6.63
2023-01-21T14:36:43.406Z,6.63
2023-01-21T14:39:32.770Z,5.90
2023-01-21T14:42:13.218Z,5.77
2023-01-21T14:44:43.969Z,6.73
2023-01-21T14:47:22.801Z,5.67
2023-01-21T14:54:57.816Z,6.80
2023-01-21T14:57:33.024Z,5.50
2023-01-21T15:00:12.775Z,6.03
2023-01-21T15:02:45.734Z,5.63
2023-01-21T15:05:23.450Z,6.27
2023-01-21T15:08:07.062Z,5.47
2023-01-21T15:10:40.541Z,5.90
2023-01-21T15:18:38.011Z,6.63
2023-01-21T15:21:34.071Z,6.63
2023-01-21T15:24:23.292Z,6.13
2023-01-21T15:27:14.343Z,5.43
2023-01-21T15:29:48.573Z,5.50
2023-01-21T15:32:27.077Z,4.67
2023-01-21T15:42:38.603Z,5.70
2023-01-21T15:45:21.244Z,6.10
2023-01-21T15:48:10.272Z,7.10
2023-01-21T15:50:50.435Z,5.97
2023-01-21T15:53:47.168Z,6.27
2023-01-21T15:56:40.304Z,5.87
2023-01-21T15:59:25.044Z,6.40
2023-01-21T16:05:19.861Z,5.27
2023-01-21T16:08:04.573Z,6.20
2023-01-21T16:10:45.608Z,6.03
2023-01-21T16:13:24.183Z,6.33
2023-01-21T16:16:12.304Z,5.90
2023-01-21T16:18:54.645Z,5.93
2023-01-21T16:21:31.725Z,5.57
2023-01-21T16:26:46.925Z,5.33
2023-01-21T16:29:17.323Z,6.07
2023-01-21T16:31:50.865Z,5.80
2023-01-21T16:34:44.373Z,6.17
2023-01-21T16:37:16.376Z,6.40
2023-01-21T16:39:50.828Z,6.70
2023-01-21T16:42:37.583Z,6.70
2023-01-21T16:48:32.090Z,6.90
2023-01-21T16:51:01.837Z,6.67
2023-01-21T16:53:32.279Z,5.80
2023-01-21T16:56:01.268Z,5.80
2023-01-21T16:58:34.543Z,5.83
2023-01-21T17:01:07.537Z,6.73
2023-01-21T17:03:38.494Z,7.70
2023-01-21T17:08:55.366Z,5.13
2023-01-21T17:11:26.414Z,6.27
2023-01-21T17:13:55.188Z,6.23
2023-01-21T17:16:28.759Z,6.87
2023-01-21T17:19:00.751Z,6.57
2023-01-21T17:21:33.183Z,6.70
2023-01-21T17:24:05.252Z,6.63
2023-01-21T17:31:58.080Z,5.80
2023-01-21T17:34:29.042Z,6.27
2023-01-21T17:37:15.752Z,5.67
2023-01-21T17:40:04.046Z,6.93
2023-01-21T17:43:10.644Z,5.90
2023-01-21T17:45:53.569Z,6.17
2023-01-21T17:48:35.357Z,6.10
2023-01-21T17:56:42.056Z,6.03
2023-01-21T17:59:34.854Z,6.13
2023-01-21T18:02:08.612Z,6.40
2023-01-21T18:04:39.352Z,6.13
2023-01-21T18:07:22.423Z,5.73
2023-01-21T18:09:54.886Z,5.87
2023-01-21T18:12:28.081Z,6.03
2023-01-21T18:17:45.628Z,5.53
2023-01-21T18:20:21.459Z,5.67
2023-01-21T18:22:54.672Z,6.20
2023-01-21T18:25:28.209Z,5.60
2023-01-21T18:28:00.096Z,5.30
2023-01-21T18:30:36.710Z,6.10
2023-01-21T18:33:09.683Z,5.90
2023-01-21T18:35:42.787Z,5.03
2023-01-21T18:43:23.246Z,5.67
2023-01-21T18:45:57.118Z,5.47
2023-01-21T18:48:33.074Z,4.90
2023-01-21T18:51:03.730Z,5.37
2023-01-21T18:53:34.878Z,4.67
2023-01-21T18:56:05.993Z,5.40
2023-01-21T18:58:36.070Z,5.77
2023-01-21T19:01:21.053Z,4.47
2023-01-21T19:08:57.278Z,5.07
2023-01-21T19:11:27.262Z,4.50
2023-01-21T19:13:55.458Z,5.27
2023-01-21T19:16:25.201Z,5.17
2023-01-21T19:18:56.077Z,5.47
2023-01-21T19:21:28.706Z,4.67
2023-01-21T19:24:00.901Z,5.60
2023-01-21T19:29:23.409Z,4.60
2023-01-21T19:31:54.592Z,5.37
2023-01-21T19:34:27.165Z,5.20
2023-01-21T19:36:57.485Z,5.50
2023-01-21T19:39:25.870Z,5.00
2023-01-21T19:42:08.329Z,4.87
2023-01-21T19:44:42.152Z,5.13
2023-01-21T19:50:27.328Z,4.63
2023-01-21T19:53:06.568Z,4.47
2023-01-21T19:55:37.965Z,5.17
2023-01-21T19:58:19.938Z,5.30
2023-01-21T20:00:52.797Z,4.50
2023-01-21T20:03:25.304Z,4.93
2023-01-21T20:06:02.681Z,6.03
2023-01-21T20:11:16.608Z,5.53
2023-01-21T20:13:48.306Z,5.77
2023-01-21T20:16:26.571Z,5.30
2023-01-21T20:19:01.316Z,6.43
2023-01-21T20:21:30.458Z,6.23
2023-01-21T20:24:00.364Z,5.57
2023-01-21T20:26:30.481Z,6.00
2023-01-21T20:36:49.086Z,6.60
2023-01-21T20:39:20.861Z,5.63
2023-01-21T20:41:49.069Z,6.17
2023-01-21T20:44:18.101Z,5.70
2023-01-21T20:46:46.184Z,5.50
2023-01-21T20:49:18.627Z,5.50
2023-01-21T20:51:50.457Z,6.30
2023-01-21T20:57:04.695Z,6.00
2023-01-21T20:59:37.556Z,6.40
2023-01-21T21:02:09.466Z,5.03
2023-01-21T21:04:39.548Z,5.90
2023-01-21T21:07:12.877Z,5.93
2023-01-21T21:09:46.401Z,6.50
2023-01-21T21:12:18.890Z,6.97
2023-01-21T21:14:47.994Z,7.87
2023-01-21T21:22:23.903Z,7.77
2023-01-21T21:24:53.995Z,7.50
2023-01-21T21:27:22.168Z,7.23
2023-01-21T21:29:54.601Z,8.13
2023-01-21T21:32:25.630Z,8.43
2023-01-21T21:34:54.845Z,7.60
2023-01-21T21:37:23.922Z,8.37
2023-01-21T21:39:53.025Z,9.13
2023-01-21T21:48:11.997Z,9.50
2023-01-21T21:50:42.998Z,10.03
2023-01-21T21:53:15.125Z,9.13
2023-01-21T21:55:42.740Z,9.07
2023-01-21T21:58:11.517Z,11.20
2023-01-21T22:00:41.578Z,10.53
2023-01-21T22:03:12.180Z,10.53
2023-01-21T22:05:48.577Z,11.97
2023-01-21T22:13:24.102Z,11.80
2023-01-21T22:15:56.499Z,10.17
2023-01-21T22:18:26.761Z,10.33
2023-01-21T22:21:03.804Z,11.17
2023-01-21T22:23:35.555Z,9.83
2023-01-21T22:26:14.901Z,11.03
2023-01-21T22:28:45.312Z,10.20
2023-01-21T22:33:56.614Z,10.43
2023-01-21T22:36:27.920Z,11.60
2023-01-21T22:38:58.928Z,11.03
2023-01-21T22:41:27.627Z,10.37
2023-01-21T22:43:56.653Z,9.67
2023-01-21T22:46:26.796Z,10.07
2023-01-21T22:48:55.702Z,11.17
2023-01-21T22:54:05.655Z,9.97
2023-01-21T22:56:51.156Z,11.27
2023-01-21T22:59:21.222Z,8.57
2023-01-21T23:01:50.585Z,12.43
2023-01-21T23:04:18.197Z,11.03
2023-01-21T23:06:48.921Z,10.43
2023-01-21T23:09:21.735Z,10.93
2023-01-21T23:14:51.646Z,10.00
2023-01-21T23:17:19.459Z,10.10
2023-01-21T23:19:47.067Z,9.80
2023-01-21T23:22:19.954Z,9.23
2023-01-21T23:24:53.578Z,10.13
2023-01-21T23:27:23.240Z,10.53
2023-01-21T23:29:53.141Z,10.23
2023-01-21T23:35:01.193Z,10.13
2023-01-21T23:37:29.113Z,10.00
2023-01-21T23:39:56.850Z,9.70
2023-01-21T23:42:27.871Z,9.37
2023-01-21T23:44:58.005Z,10.03
2023-01-21T23:47:32.025Z,8.00
2023-01-21T23:50:01.551Z,8.33
2023-01-21T23:52:29.869Z,9.23
